WetterOnline ( https://www.wetteronline.de )

Wetter aktuell Heilbad Heiligenstadt

Aktuelles Wetter: Göttingen (171m)

6-stündlich | Neueste Meldungen
Ortszeit Temperatur Wetter
Mo, 26.09. 20:00 12.1° C bewölkt
Mo, 26.09. 14:00 14.4° C bewölkt
Mo, 26.09. 8:00 8.9° C bewölkt
Mo, 26.09. 2:00 6.8° C leicht bewölkt
So, 25.09. 20:00 13.2° C bedeckt
So, 25.09. 14:00 13.4° C Regen
So, 25.09. 8:00 11.5° C bedeckt
So, 25.09. 2:00 11.6° C bedeckt
Ortszeit Temperatur Wetter
Mo, 26.09. 22:00 11.0° C bedeckt
Mo, 26.09. 21:50 11.0° C bedeckt
Mo, 26.09. 21:40 11.6° C Sprühregen
Mo, 26.09. 21:30 12.0° C bewölkt
Mo, 26.09. 21:20 12.0° C bewölkt
Mo, 26.09. 21:10 12.0° C bedeckt
Mo, 26.09. 21:00 12.1° C bedeckt
Mo, 26.09. 20:30 12.1° C bedeckt
Mo, 26.09. 20:00 12.1° C bewölkt
Mo, 26.09. 19:30 12.2° C bedeckt
Mo, 26.09. 19:00 12.1° C wolkig
Ortszeit Relative Feuchte Sichtweite
Mo, 26.09. 20:00 68% >70 km
Mo, 26.09. 14:00 54% >70 km
Mo, 26.09. 8:00 85% 50 km
Mo, 26.09. 2:00 94% 40 km
So, 25.09. 20:00 74% 55 km
So, 25.09. 14:00 76% 40 km
So, 25.09. 8:00 95% 9 km
So, 25.09. 2:00 94% 17 km
Ortszeit Relative Feuchte Sichtweite
Mo, 26.09. 22:00 80% 65 km
Mo, 26.09. 21:50 80% -
Mo, 26.09. 21:40 74% -
Mo, 26.09. 21:30 70% >70 km
Mo, 26.09. 21:20 70% -
Mo, 26.09. 21:10 69% -
Mo, 26.09. 21:00 69% >70 km
Mo, 26.09. 20:30 68% >70 km
Mo, 26.09. 20:00 68% >70 km
Mo, 26.09. 19:30 66% >70 km
Mo, 26.09. 19:00 68% 65 km
Ortszeit Niederschlagsmenge Niederschlagsart
Mo, 26.09. 20:00 0.1 l/m2 in 12 Std. Regen
Mo, 26.09. 14:00 0.0 l/m2 in 6 Std. -
Mo, 26.09. 8:00 0.0 l/m2 in 12 Std. -
Mo, 26.09. 2:00 0.0 l/m2 in 6 Std. -
So, 25.09. 20:00 0.1 l/m2 in 12 Std. Regen
So, 25.09. 14:00 0.1 l/m2 in 6 Std. Regen
So, 25.09. 8:00 0.1 l/m2 in 12 Std. Regen
So, 25.09. 2:00 0.1 l/m2 in 6 Std. Regen
Ortszeit Niederschlagsmenge Niederschlagsart
Mo, 26.09. 22:00 <0.05 l/m2 in 1 Std. Regen
Mo, 26.09. 21:50 keine Meldung -
Mo, 26.09. 21:40 keine Meldung -
Mo, 26.09. 21:30 <0.05 l/m2 in 1 Std. Schneeregen
Mo, 26.09. 21:20 keine Meldung -
Mo, 26.09. 21:10 keine Meldung -
Mo, 26.09. 21:00 <0.05 l/m2 in 1 Std. Regen
Mo, 26.09. 20:30 0.0 l/m2 in 1 Std. -
Mo, 26.09. 20:00 0.0 l/m2 in 1 Std. Regen
Mo, 26.09. 19:30 0.0 l/m2 in 1 Std. -
Mo, 26.09. 19:00 <0.05 l/m2 in 1 Std. Regen
Ortszeit Stärke Spitze Richtung
km/h Bft. km/h Grad Sektor
Mo, 26.09. 20:00 17 3 43 180° S
Mo, 26.09. 14:00 26 4 44 210° SW
Mo, 26.09. 8:00 9 2 15 160° S
Mo, 26.09. 2:00 7 2 14 130° SO
So, 25.09. 20:00 11 2 20 300° NW
So, 25.09. 14:00 6 1 17 310° NW
So, 25.09. 8:00 0 0 7 - -
So, 25.09. 2:00 4 1 7 40° NO
Ortszeit Stärke Spitze Richtung
km/h Bft. km/h Grad Sektor
Mo, 26.09. 22:00 18 3 29 180° S
Mo, 26.09. 21:50 18 3 - 180° S
Mo, 26.09. 21:40 18 3 - 190° S
Mo, 26.09. 21:30 14 3 29 170° S
Mo, 26.09. 21:20 14 3 - 170° S
Mo, 26.09. 21:10 14 3 - 160° S
Mo, 26.09. 21:00 17 3 28 170° S
Mo, 26.09. 20:30 14 3 25 180° S
Mo, 26.09. 20:00 17 3 33 180° S
Mo, 26.09. 19:30 22 4 32 180° S
Mo, 26.09. 19:00 15 3 31 180° S
Ortszeit Untergrenze Bedeckung Gattung
total tief tief mittel hoch
Mo, 26.09. 20:00 1080 m 7/8 7/8 - - -
Mo, 26.09. 14:00 1800 m 8/8 7/8 - - -
Mo, 26.09. 8:00 1800 m 7/8 7/8 - - -
Mo, 26.09. 2:00 9000 m 3/8 0/8 - - -
So, 25.09. 20:00 990 m 8/8 8/8 - - -
So, 25.09. 14:00 630 m 7/8 7/8 - - -
So, 25.09. 8:00 570 m 8/8 8/8 - - -
So, 25.09. 2:00 1800 m 8/8 8/8 - - -
Ortszeit Bedeckungsgrad in Achtel und Wolkenuntergrenze
Mo, 26.09. 22:00 3(780m) 7(1440m) 8(1500m)
Mo, 26.09. 21:50 3(780m) 7(1440m) 8(1500m)
Mo, 26.09. 21:40 7
Mo, 26.09. 21:30 7(960m)
Mo, 26.09. 21:20 7(960m)
Mo, 26.09. 21:10 8
Mo, 26.09. 21:00 6(1080m) 7(1290m) 8(1500m)
Mo, 26.09. 20:30 6(1020m) 7(1380m) 8(1500m)
Mo, 26.09. 20:00 7(1080m)
Mo, 26.09. 19:30 6(1140m) 7(1380m) 8(2700m)
Mo, 26.09. 19:00 3(1500m) 8(3000m)
Ortszeit Luftdruck NN (hPa) Tendenz (hPa in 3 Std.)
Mo, 26.09. 20:00 999 - 2,0
Mo, 26.09. 14:00 1003 - 1,8
Mo, 26.09. 8:00 1007 - 2,0
Mo, 26.09. 2:00 1011 - 0,8
So, 25.09. 20:00 1011 - 0,3
So, 25.09. 14:00 1013 - 0,4
So, 25.09. 8:00 1013 0,0
So, 25.09. 2:00 1014 0,0
Ortszeit Luftdruck NN (hPa) Tendenz (hPa in 3 Std.)
Mo, 26.09. 22:00 998 - 1,7
Mo, 26.09. 21:50 998 keine Meldung
Mo, 26.09. 21:40 999 keine Meldung
Mo, 26.09. 21:30 999 - 1,9
Mo, 26.09. 21:20 999 keine Meldung
Mo, 26.09. 21:10 999 keine Meldung
Mo, 26.09. 21:00 999 - 1,7
Mo, 26.09. 20:30 999 - 2,0
Mo, 26.09. 20:00 999 - 2,0
Mo, 26.09. 19:30 1000 - 1,9
Mo, 26.09. 19:00 1000 - 1,8
Ortszeit Schneehöhe (cm)
Mo, 26.09. 20:00 0
Mo, 26.09. 14:00 0
Mo, 26.09. 8:00 0
Mo, 26.09. 2:00 0
So, 25.09. 20:00 0
So, 25.09. 14:00 0
So, 25.09. 8:00 0
So, 25.09. 2:00 0
Ortszeit Schneehöhe (cm)
Mo, 26.09. 22:00 0
Mo, 26.09. 21:50 0
Mo, 26.09. 21:40 0
Mo, 26.09. 21:30 0
Mo, 26.09. 21:20 0
Mo, 26.09. 21:10 0
Mo, 26.09. 21:00 0
Mo, 26.09. 20:30 0
Mo, 26.09. 20:00 0
Mo, 26.09. 19:30 0
Mo, 26.09. 19:00 0
Link zu dieser Seite / Seite empfehlen

Das Wetter in ...